createdAt,value
2018-08-08T00:00:27.430Z,7.73
2018-08-08T00:02:55.604Z,7.80
2018-08-08T00:05:23.529Z,7.80
2018-08-08T00:07:52.408Z,7.70
2018-08-08T00:10:20.582Z,7.30
2018-08-08T00:12:48.764Z,7.83
2018-08-08T00:15:17.342Z,8.50
2018-08-08T00:17:46.288Z,8.40
2018-08-08T00:20:14.882Z,7.90
2018-08-08T00:22:43.047Z,7.90
2018-08-08T00:25:12.857Z,7.23
2018-08-08T00:27:41.740Z,7.93
2018-08-08T00:30:11.039Z,8.27
2018-08-08T00:32:39.240Z,8.27
2018-08-08T00:35:07.409Z,8.23
2018-08-08T00:37:36.305Z,7.53
2018-08-08T00:40:06.755Z,7.37
2018-08-08T00:42:34.923Z,8.97
2018-08-08T00:45:03.220Z,8.20
2018-08-08T00:47:31.394Z,7.80
2018-08-08T00:49:59.560Z,8.10
2018-08-08T00:52:27.702Z,8.47
2018-08-08T00:54:55.840Z,8.63
2018-08-08T00:57:23.984Z,8.33
2018-08-08T00:59:52.187Z,7.63
2018-08-08T01:02:20.356Z,8.60
2018-08-08T01:04:48.525Z,7.70
2018-08-08T01:07:16.692Z,7.83
2018-08-08T01:09:44.861Z,7.57
2018-08-08T01:12:13.005Z,7.33
2018-08-08T01:14:41.277Z,7.20
2018-08-08T01:17:09.425Z,7.60
2018-08-08T01:19:37.560Z,7.17
2018-08-08T01:22:05.790Z,8.10
2018-08-08T01:24:33.957Z,7.90
2018-08-08T01:27:02.157Z,8.40
2018-08-08T01:29:30.322Z,7.73
2018-08-08T01:31:58.465Z,8.47
2018-08-08T01:34:26.667Z,7.63
2018-08-08T01:36:54.841Z,8.30
2018-08-08T01:39:23.041Z,7.30
2018-08-08T01:41:51.176Z,7.23
2018-08-08T01:44:19.334Z,7.27
2018-08-08T01:46:47.494Z,7.70
2018-08-08T01:49:15.625Z,7.80
2018-08-08T01:51:43.779Z,7.80
2018-08-08T01:54:11.939Z,6.97
2018-08-08T01:56:40.121Z,7.03
2018-08-08T01:59:08.242Z,7.73
2018-08-08T02:01:36.390Z,6.93
2018-08-08T02:04:04.614Z,8.80
2018-08-08T02:06:32.685Z,8.03
2018-08-08T02:09:00.921Z,9.37
2018-08-08T02:11:29.062Z,7.80
2018-08-08T02:13:57.213Z,8.60
2018-08-08T02:16:25.364Z,7.37
2018-08-08T02:18:53.532Z,7.50
2018-08-08T02:21:21.662Z,7.93
2018-08-08T02:23:49.824Z,7.40
2018-08-08T02:26:17.975Z,8.00
2018-08-08T02:28:46.146Z,7.50
2018-08-08T02:31:14.274Z,6.53
2018-08-08T02:33:42.418Z,7.80
2018-08-08T02:36:10.565Z,7.07
2018-08-08T02:38:38.738Z,8.30
2018-08-08T02:41:07.864Z,8.07
2018-08-08T02:43:36.043Z,7.77
2018-08-08T02:46:04.334Z,9.60
2018-08-08T02:48:32.482Z,8.27
2018-08-08T02:51:00.655Z,9.20
2018-08-08T02:53:28.825Z,7.50
2018-08-08T02:55:57.063Z,7.10
2018-08-08T02:58:25.249Z,8.30
2018-08-08T03:00:53.425Z,7.03
2018-08-08T03:03:21.609Z,7.20
2018-08-08T03:05:49.751Z,7.10
2018-08-08T03:08:18.017Z,7.90
2018-08-08T03:10:46.158Z,7.57
2018-08-08T03:13:14.295Z,8.80
2018-08-08T03:15:42.435Z,9.40
2018-08-08T03:18:10.597Z,9.63
2018-08-08T03:20:38.744Z,8.23
2018-08-08T03:23:06.917Z,9.50
2018-08-08T03:25:35.054Z,7.97
2018-08-08T03:28:03.183Z,8.10
2018-08-08T03:30:31.314Z,8.37
2018-08-08T03:32:59.440Z,8.00
2018-08-08T03:35:27.576Z,7.30
2018-08-08T03:37:55.768Z,7.53
2018-08-08T03:40:23.904Z,7.00
2018-08-08T03:42:52.037Z,7.23
2018-08-08T03:45:20.183Z,6.90
2018-08-08T03:47:48.316Z,6.73
2018-08-08T03:50:16.569Z,7.37
2018-08-08T03:52:44.973Z,7.63
2018-08-08T03:55:13.422Z,6.83
2018-08-08T03:57:41.908Z,6.80
2018-08-08T04:00:13.703Z,8.23
2018-08-08T04:02:42.015Z,8.80
2018-08-08T04:05:10.293Z,8.77
2018-08-08T04:07:38.570Z,9.53
2018-08-08T04:10:07.863Z,8.80
2018-08-08T04:12:36.453Z,8.37
2018-08-08T04:15:08.201Z,8.97
2018-08-08T04:17:36.355Z,8.13
2018-08-08T04:20:05.524Z,7.97
2018-08-08T04:22:33.685Z,8.77
2018-08-08T04:25:01.834Z,9.47
2018-08-08T04:27:29.980Z,9.60
2018-08-08T04:29:58.141Z,8.70
2018-08-08T04:32:26.289Z,9.00
2018-08-08T04:34:54.457Z,10.73
2018-08-08T04:37:22.585Z,10.50
2018-08-08T04:39:50.733Z,11.03
2018-08-08T04:42:18.873Z,9.70
2018-08-08T04:44:47.013Z,9.37
2018-08-08T04:47:15.182Z,9.73
2018-08-08T04:49:43.300Z,9.13
2018-08-08T04:52:11.434Z,8.97
2018-08-08T04:54:39.578Z,10.10
2018-08-08T04:57:07.770Z,8.57
2018-08-08T04:59:35.916Z,9.63
2018-08-08T05:02:04.099Z,9.30
2018-08-08T05:04:32.233Z,9.27
2018-08-08T05:07:00.370Z,9.97
2018-08-08T05:09:28.514Z,8.60
2018-08-08T05:11:56.661Z,8.73
2018-08-08T05:14:24.792Z,8.83
2018-08-08T05:16:52.933Z,9.00
2018-08-08T05:19:21.090Z,9.23
2018-08-08T05:21:49.241Z,8.90
2018-08-08T05:24:17.374Z,8.20
2018-08-08T05:26:45.508Z,7.90
2018-08-08T05:29:13.651Z,7.50
2018-08-08T05:31:41.796Z,8.00
2018-08-08T05:34:09.946Z,8.07
2018-08-08T05:36:38.085Z,8.27
2018-08-08T05:39:09.409Z,7.80
2018-08-08T05:41:37.559Z,7.13
2018-08-08T05:44:05.717Z,9.50
2018-08-08T05:46:33.874Z,10.50
2018-08-08T05:49:02.093Z,10.43
2018-08-08T05:51:30.197Z,8.80
2018-08-08T05:53:58.470Z,10.00
2018-08-08T05:56:26.661Z,9.97
2018-08-08T05:58:54.814Z,9.73
2018-08-08T06:01:23.007Z,8.37
2018-08-08T06:03:51.165Z,7.53
2018-08-08T06:06:19.335Z,8.10
2018-08-08T06:08:47.456Z,8.80
2018-08-08T06:11:15.620Z,9.67
2018-08-08T06:13:43.785Z,10.70
2018-08-08T06:16:11.979Z,11.00
2018-08-08T06:18:40.119Z,10.67
2018-08-08T06:21:08.260Z,10.17
2018-08-08T06:23:36.425Z,10.20
2018-08-08T06:26:04.574Z,10.80
2018-08-08T06:28:32.733Z,11.50
2018-08-08T06:31:00.858Z,9.60
2018-08-08T06:33:29.004Z,9.67
2018-08-08T06:35:57.161Z,8.63
2018-08-08T06:38:25.313Z,9.13
2018-08-08T06:40:53.450Z,9.00
2018-08-08T06:43:21.608Z,7.70
2018-08-08T06:45:49.771Z,7.67
2018-08-08T06:48:17.902Z,7.90
2018-08-08T06:50:46.032Z,8.03
2018-08-08T06:53:14.191Z,7.90
2018-08-08T06:55:42.375Z,8.40
2018-08-08T06:58:10.502Z,9.37
2018-08-08T07:00:38.644Z,9.80
2018-08-08T07:03:06.826Z,11.00
2018-08-08T07:05:35.035Z,10.07
2018-08-08T07:08:03.180Z,10.07
2018-08-08T07:10:31.323Z,7.93
2018-08-08T07:12:59.465Z,7.37
2018-08-08T07:15:27.585Z,7.70
2018-08-08T07:17:55.725Z,7.77
2018-08-08T07:20:23.866Z,7.00
2018-08-08T07:22:52.031Z,7.00
2018-08-08T07:25:20.293Z,7.47
2018-08-08T07:27:48.698Z,7.00
2018-08-08T07:30:17.978Z,7.20
2018-08-08T07:32:46.146Z,7.40
2018-08-08T07:35:14.609Z,7.10
2018-08-08T07:37:43.966Z,6.90
2018-08-08T07:40:13.403Z,7.07
2018-08-08T07:42:42.237Z,6.07
2018-08-08T07:45:12.390Z,7.73
2018-08-08T07:47:40.534Z,6.20
2018-08-08T07:50:10.009Z,5.97
2018-08-08T07:52:38.195Z,6.40
2018-08-08T07:55:07.697Z,6.10
2018-08-08T07:57:35.840Z,6.90
2018-08-08T08:00:08.976Z,6.33
2018-08-08T08:02:37.157Z,7.57
2018-08-08T08:05:05.314Z,7.10
2018-08-08T08:07:33.441Z,6.10
2018-08-08T08:10:01.611Z,6.80
2018-08-08T08:12:29.771Z,7.13
2018-08-08T08:14:57.906Z,6.47
2018-08-08T08:17:26.188Z,6.30
2018-08-08T08:19:55.651Z,6.90
2018-08-08T08:22:23.818Z,6.70
2018-08-08T08:24:51.967Z,7.63
2018-08-08T08:27:20.122Z,5.87
2018-08-08T08:29:48.320Z,7.20
2018-08-08T08:32:16.428Z,7.00
2018-08-08T08:34:44.617Z,7.00
2018-08-08T08:37:15.028Z,6.60
2018-08-08T08:39:43.340Z,6.70
2018-08-08T08:42:11.487Z,6.27
2018-08-08T08:44:39.662Z,6.93
2018-08-08T08:47:12.287Z,7.23
2018-08-08T08:49:40.733Z,7.70
2018-08-08T08:52:08.885Z,6.90
2018-08-08T08:54:37.072Z,6.53
2018-08-08T08:57:06.371Z,6.73
2018-08-08T08:59:34.553Z,7.30
2018-08-08T09:02:02.704Z,6.40
2018-08-08T09:04:30.864Z,7.00
2018-08-08T09:06:59.491Z,6.60
2018-08-08T09:09:27.707Z,7.70
2018-08-08T09:11:56.130Z,7.03
2018-08-08T09:14:24.398Z,6.13
2018-08-08T09:16:52.613Z,6.27
2018-08-08T09:19:21.302Z,6.43
2018-08-08T09:21:49.522Z,6.50
2018-08-08T09:24:17.755Z,6.10
2018-08-08T09:26:46.384Z,5.37
2018-08-08T09:29:14.605Z,5.80
2018-08-08T09:31:42.805Z,5.30
2018-08-08T09:34:10.953Z,5.63
2018-08-08T09:36:39.229Z,5.57
2018-08-08T09:39:08.366Z,6.30
2018-08-08T09:41:36.637Z,6.03
2018-08-08T09:44:09.154Z,6.10
2018-08-08T09:46:37.578Z,4.93
2018-08-08T09:49:05.738Z,5.40
2018-08-08T09:51:33.890Z,6.33
2018-08-08T09:54:02.194Z,5.50
2018-08-08T09:56:30.569Z,6.27
2018-08-08T09:58:58.693Z,5.33
2018-08-08T10:01:32.402Z,5.23
2018-08-08T10:04:06.024Z,5.10
2018-08-08T10:06:34.180Z,4.50
2018-08-08T10:09:02.403Z,5.77
2018-08-08T10:11:30.584Z,4.33
2018-08-08T10:13:58.760Z,4.63
2018-08-08T10:16:26.939Z,4.00
2018-08-08T10:18:54.851Z,4.70
2018-08-08T10:21:23.047Z,4.57
2018-08-08T10:23:51.224Z,4.77
2018-08-08T10:26:19.387Z,4.47
2018-08-08T10:28:47.560Z,4.67
2018-08-08T10:31:15.756Z,4.17
2018-08-08T10:33:43.937Z,4.50
2018-08-08T10:36:12.126Z,4.30
2018-08-08T10:38:40.313Z,4.70
2018-08-08T10:41:08.517Z,4.63
2018-08-08T10:43:36.697Z,5.20
2018-08-08T10:46:04.886Z,4.50
2018-08-08T10:48:33.087Z,5.10
2018-08-08T10:51:01.253Z,4.40
2018-08-08T10:53:29.421Z,4.23
2018-08-08T10:55:57.686Z,4.90
2018-08-08T10:58:25.787Z,4.70
2018-08-08T11:00:53.958Z,4.73
2018-08-08T11:03:22.117Z,5.03
2018-08-08T11:05:50.284Z,4.20
2018-08-08T11:08:18.498Z,5.00
2018-08-08T11:10:46.688Z,5.23
2018-08-08T11:13:14.869Z,4.60
2018-08-08T11:15:43.048Z,5.20
2018-08-08T11:18:11.217Z,5.20
2018-08-08T11:20:39.372Z,4.60
2018-08-08T11:23:07.546Z,4.40
2018-08-08T11:25:35.708Z,4.67
2018-08-08T11:28:03.921Z,4.80
2018-08-08T11:30:32.190Z,4.43
2018-08-08T11:33:00.350Z,4.57
2018-08-08T11:35:28.514Z,5.50
2018-08-08T11:37:56.766Z,5.50
2018-08-08T11:40:25.538Z,4.80
2018-08-08T11:42:53.825Z,5.27
2018-08-08T11:45:22.001Z,5.43
2018-08-08T11:47:50.809Z,4.83
2018-08-08T11:50:18.965Z,4.90
2018-08-08T11:52:47.222Z,4.73
2018-08-08T11:55:15.498Z,4.77
2018-08-08T11:57:44.014Z,5.07
2018-08-08T12:00:12.189Z,4.47
2018-08-08T12:02:40.361Z,4.57
2018-08-08T12:05:09.140Z,4.43
2018-08-08T12:07:37.390Z,4.13
2018-08-08T12:10:06.809Z,5.60
2018-08-08T12:12:35.019Z,4.30
2018-08-08T12:15:03.236Z,4.10
2018-08-08T12:17:31.428Z,4.27
2018-08-08T12:19:59.602Z,4.70
2018-08-08T12:22:27.777Z,4.83
2018-08-08T12:24:55.944Z,5.20
2018-08-08T12:27:24.182Z,3.83
2018-08-08T12:29:52.361Z,4.53
2018-08-08T12:32:20.537Z,4.50
2018-08-08T12:34:48.763Z,4.70
2018-08-08T12:37:16.687Z,4.30
2018-08-08T12:39:44.840Z,5.13
2018-08-08T12:42:13.073Z,5.00
2018-08-08T12:44:41.403Z,4.70
2018-08-08T12:47:09.549Z,5.20
2018-08-08T12:49:37.733Z,5.33
2018-08-08T12:52:05.977Z,5.60
2018-08-08T12:54:34.137Z,5.60
2018-08-08T12:57:02.316Z,5.90
2018-08-08T12:59:30.489Z,5.37
2018-08-08T13:01:58.712Z,5.80
2018-08-08T13:04:26.884Z,5.50
2018-08-08T13:06:55.025Z,5.50
2018-08-08T13:09:23.211Z,5.73
2018-08-08T13:11:51.412Z,5.20
2018-08-08T13:14:19.771Z,5.30
2018-08-08T13:16:47.925Z,4.93
2018-08-08T13:19:16.177Z,5.47
2018-08-08T13:21:44.408Z,4.97
2018-08-08T13:24:12.628Z,5.27
2018-08-08T13:26:40.742Z,6.20
2018-08-08T13:29:08.961Z,5.60
2018-08-08T13:31:37.121Z,4.90
2018-08-08T13:34:05.425Z,5.80
2018-08-08T13:36:33.657Z,6.90
2018-08-08T13:39:01.892Z,6.77
2018-08-08T13:41:30.367Z,7.57
2018-08-08T13:43:58.617Z,5.60
2018-08-08T13:46:26.811Z,6.67
2018-08-08T13:48:54.984Z,6.63
2018-08-08T13:51:31.900Z,7.67
2018-08-08T13:54:00.917Z,6.23
2018-08-08T13:56:29.232Z,6.50
2018-08-08T13:58:57.680Z,6.90
2018-08-08T14:01:26.281Z,6.00
2018-08-08T14:03:54.593Z,6.47
2018-08-08T14:06:22.906Z,7.30
2018-08-08T14:08:50.911Z,5.97
2018-08-08T14:11:19.056Z,6.70
2018-08-08T14:13:47.237Z,7.63
2018-08-08T14:16:15.403Z,7.10
2018-08-08T14:18:43.648Z,7.80
2018-08-08T14:21:11.760Z,7.43
2018-08-08T14:23:39.922Z,6.90
2018-08-08T14:26:08.090Z,7.20
2018-08-08T14:28:36.253Z,7.97
2018-08-08T14:31:04.443Z,8.40
2018-08-08T14:33:32.688Z,6.70
2018-08-08T14:36:00.854Z,6.90
2018-08-08T14:38:29.028Z,7.33
2018-08-08T14:40:57.221Z,7.23
2018-08-08T14:43:25.409Z,7.80
2018-08-08T14:45:53.565Z,7.77
2018-08-08T14:48:21.729Z,6.57
2018-08-08T14:50:49.878Z,6.73
2018-08-08T14:53:19.054Z,6.27
2018-08-08T14:55:47.201Z,6.60
2018-08-08T14:58:15.376Z,6.77
2018-08-08T15:00:43.534Z,7.07
2018-08-08T15:03:11.680Z,6.60
2018-08-08T15:05:39.868Z,6.03
2018-08-08T15:08:08.008Z,6.80
2018-08-08T15:10:36.170Z,6.73
2018-08-08T15:13:04.318Z,7.20
2018-08-08T15:15:32.464Z,5.93
2018-08-08T15:18:00.612Z,6.80
2018-08-08T15:20:28.784Z,6.90
2018-08-08T15:22:56.944Z,6.60
2018-08-08T15:25:25.094Z,6.37
2018-08-08T15:27:53.258Z,6.63
2018-08-08T15:30:21.472Z,5.77
2018-08-08T15:32:49.653Z,5.70
2018-08-08T15:35:17.832Z,6.00
2018-08-08T15:37:46.080Z,5.80
2018-08-08T15:40:14.212Z,6.43
2018-08-08T15:42:42.405Z,5.73
2018-08-08T15:45:10.880Z,6.03
2018-08-08T15:47:39.064Z,6.63
2018-08-08T15:50:08.977Z,7.40
2018-08-08T15:52:37.399Z,6.50
2018-08-08T15:55:06.185Z,7.07
2018-08-08T15:57:34.668Z,6.67
2018-08-08T16:00:02.865Z,6.07
2018-08-08T16:02:31.057Z,5.93
2018-08-08T16:04:59.190Z,6.47
2018-08-08T16:07:27.362Z,5.97
2018-08-08T16:09:55.567Z,6.40
2018-08-08T16:12:23.730Z,6.63
2018-08-08T16:14:51.894Z,5.60
2018-08-08T16:17:20.133Z,5.73
2018-08-08T16:19:48.282Z,6.10
2018-08-08T16:22:16.453Z,5.50
2018-08-08T16:24:44.662Z,5.70
2018-08-08T16:27:12.869Z,5.90
2018-08-08T16:29:41.053Z,5.33
2018-08-08T16:32:09.250Z,5.13
2018-08-08T16:34:37.417Z,5.43
2018-08-08T16:37:05.685Z,4.77
2018-08-08T16:39:33.872Z,5.40
2018-08-08T16:42:02.039Z,5.37
2018-08-08T16:44:30.213Z,5.00
2018-08-08T16:46:58.381Z,4.97
2018-08-08T16:49:26.559Z,4.97
2018-08-08T16:51:54.792Z,4.40
2018-08-08T16:54:22.961Z,4.70
2018-08-08T16:56:51.138Z,4.40
2018-08-08T16:59:19.340Z,4.77
2018-08-08T17:01:47.513Z,4.67
2018-08-08T17:04:15.698Z,4.17
2018-08-08T17:06:43.869Z,4.20
2018-08-08T17:09:12.461Z,4.87
2018-08-08T17:11:40.784Z,3.93
2018-08-08T17:14:08.958Z,4.70
2018-08-08T17:16:37.813Z,5.17
2018-08-08T17:19:05.970Z,5.10
2018-08-08T17:21:34.149Z,4.50
2018-08-08T17:24:02.351Z,4.70
2018-08-08T17:26:30.546Z,4.83
2018-08-08T17:28:58.715Z,5.37
2018-08-08T17:31:26.972Z,5.30
2018-08-08T17:33:55.052Z,5.40
2018-08-08T17:36:23.196Z,5.53
2018-08-08T17:38:51.357Z,5.00
2018-08-08T17:41:19.519Z,4.83
2018-08-08T17:43:48.033Z,5.50
2018-08-08T17:46:15.857Z,4.80
2018-08-08T17:48:44.022Z,4.10
2018-08-08T17:51:12.189Z,4.50
2018-08-08T17:53:40.361Z,5.57
2018-08-08T17:56:08.549Z,4.83
2018-08-08T17:58:36.725Z,5.30
2018-08-08T18:01:04.923Z,4.50
2018-08-08T18:03:33.094Z,5.00
2018-08-08T18:06:01.296Z,6.00
2018-08-08T18:08:29.435Z,5.90
2018-08-08T18:10:57.360Z,6.93
2018-08-08T18:13:25.555Z,6.80
2018-08-08T18:15:53.716Z,5.27
2018-08-08T18:18:21.868Z,5.63
2018-08-08T18:20:50.085Z,5.60
2018-08-08T18:23:18.210Z,5.23
2018-08-08T18:25:46.391Z,5.90
2018-08-08T18:28:15.415Z,6.30
2018-08-08T18:30:43.627Z,5.60
2018-08-08T18:33:11.789Z,5.13
2018-08-08T18:35:39.955Z,5.70
2018-08-08T18:38:08.146Z,6.13
2018-08-08T18:40:36.269Z,4.83
2018-08-08T18:43:04.458Z,6.20
2018-08-08T18:45:32.617Z,5.90
2018-08-08T18:48:00.790Z,8.27
2018-08-08T18:50:28.953Z,9.23
2018-08-08T18:52:57.118Z,6.73
2018-08-08T18:55:25.276Z,5.63
2018-08-08T18:57:53.473Z,5.73
2018-08-08T19:00:21.645Z,5.67
2018-08-08T19:02:49.779Z,5.07
2018-08-08T19:05:17.944Z,5.40
2018-08-08T19:07:46.106Z,5.70
2018-08-08T19:10:14.237Z,5.43
2018-08-08T19:12:42.409Z,5.47
2018-08-08T19:15:11.468Z,5.40
2018-08-08T19:17:40.172Z,6.20
2018-08-08T19:20:08.319Z,5.43
2018-08-08T19:22:36.487Z,5.27
2018-08-08T19:25:04.773Z,5.70
2018-08-08T19:27:33.011Z,5.30
2018-08-08T19:30:01.176Z,6.13
2018-08-08T19:32:29.329Z,5.30
2018-08-08T19:34:57.501Z,6.50
2018-08-08T19:37:25.620Z,5.00
2018-08-08T19:39:53.800Z,6.70
2018-08-08T19:42:21.976Z,5.70
2018-08-08T19:44:50.134Z,6.40
2018-08-08T19:47:18.291Z,6.00
2018-08-08T19:49:46.452Z,6.50
2018-08-08T19:52:14.608Z,5.63
2018-08-08T19:54:42.795Z,6.00
2018-08-08T19:57:10.916Z,6.93
2018-08-08T19:59:39.068Z,5.50
2018-08-08T20:02:07.209Z,7.17
2018-08-08T20:04:35.442Z,6.27
2018-08-08T20:07:03.585Z,5.90
2018-08-08T20:09:31.744Z,6.90
2018-08-08T20:11:59.906Z,6.30
2018-08-08T20:14:28.069Z,6.10
2018-08-08T20:16:56.237Z,5.47
2018-08-08T20:19:24.417Z,5.70
2018-08-08T20:21:52.577Z,6.20
2018-08-08T20:24:20.757Z,5.77
2018-08-08T20:26:48.934Z,6.47
2018-08-08T20:29:17.134Z,6.57
2018-08-08T20:31:45.305Z,5.13
2018-08-08T20:34:13.460Z,5.90
2018-08-08T20:36:41.651Z,5.50
2018-08-08T20:39:10.468Z,5.83
2018-08-08T20:41:38.949Z,6.23
2018-08-08T20:44:07.594Z,7.73
2018-08-08T20:46:35.741Z,5.80
2018-08-08T20:49:03.874Z,7.03
2018-08-08T20:51:32.030Z,6.17
2018-08-08T20:54:00.182Z,5.73
2018-08-08T20:56:28.336Z,7.80
2018-08-08T20:58:56.473Z,6.10
2018-08-08T21:01:24.654Z,6.00
2018-08-08T21:03:52.810Z,5.97
2018-08-08T21:06:20.980Z,6.20
2018-08-08T21:08:49.117Z,5.83
2018-08-08T21:11:17.308Z,5.97
2018-08-08T21:13:45.453Z,5.60
2018-08-08T21:16:13.617Z,6.30
2018-08-08T21:18:41.758Z,6.00
2018-08-08T21:21:09.921Z,5.50
2018-08-08T21:23:38.069Z,6.23
2018-08-08T21:26:06.347Z,6.40
2018-08-08T21:28:34.493Z,6.43
2018-08-08T21:31:02.657Z,6.97
2018-08-08T21:33:30.830Z,5.80
2018-08-08T21:35:58.968Z,6.60
2018-08-08T21:38:27.113Z,6.00
2018-08-08T21:40:55.406Z,6.13
2018-08-08T21:43:23.556Z,5.70
2018-08-08T21:45:51.736Z,6.10
2018-08-08T21:48:19.868Z,5.83
2018-08-08T21:50:47.997Z,6.27
2018-08-08T21:53:17.903Z,6.10
2018-08-08T21:55:57.534Z,7.10
2018-08-08T21:58:37.240Z,6.67
2018-08-08T22:01:16.899Z,6.03
2018-08-08T22:03:56.579Z,6.20
2018-08-08T22:06:36.104Z,6.23
2018-08-08T22:09:15.753Z,5.77
2018-08-08T22:11:56.165Z,6.83
2018-08-08T22:14:35.706Z,7.60
2018-08-08T22:17:15.394Z,5.77
2018-08-08T22:19:44.979Z,7.10
2018-08-08T22:22:13.126Z,6.30
2018-08-08T22:24:41.285Z,5.90
2018-08-08T22:27:09.446Z,6.30
2018-08-08T22:29:37.613Z,6.67
2018-08-08T22:32:05.861Z,6.47
2018-08-08T22:34:34.037Z,6.70
2018-08-08T22:37:02.179Z,6.53
2018-08-08T22:39:30.385Z,6.30
2018-08-08T22:41:58.497Z,6.60
2018-08-08T22:44:26.719Z,6.73
2018-08-08T22:46:54.901Z,6.70
2018-08-08T22:49:23.044Z,6.80
2018-08-08T22:51:51.209Z,7.13
2018-08-08T22:54:19.370Z,7.40
2018-08-08T22:56:47.522Z,6.53
2018-08-08T22:59:15.672Z,6.50
2018-08-08T23:01:43.833Z,7.80
2018-08-08T23:04:12.006Z,6.60
2018-08-08T23:06:40.181Z,7.77
2018-08-08T23:09:09.386Z,7.30
2018-08-08T23:11:37.564Z,7.17
2018-08-08T23:14:05.918Z,6.90
2018-08-08T23:16:34.073Z,6.87
2018-08-08T23:19:02.305Z,7.47
2018-08-08T23:21:30.476Z,8.27
2018-08-08T23:23:58.633Z,6.60
2018-08-08T23:26:26.805Z,6.90
2018-08-08T23:28:54.969Z,7.63
2018-08-08T23:31:23.125Z,6.80
2018-08-08T23:33:51.291Z,6.97
2018-08-08T23:36:19.457Z,7.60
2018-08-08T23:38:47.620Z,6.93
2018-08-08T23:41:15.765Z,7.53
2018-08-08T23:43:43.969Z,7.63
2018-08-08T23:46:12.164Z,7.37
2018-08-08T23:48:40.359Z,6.87
2018-08-08T23:51:08.528Z,7.80
2018-08-08T23:53:36.729Z,7.00
2018-08-08T23:56:04.885Z,7.80
2018-08-08T23:58:33.045Z,6.90
